Time;durP1;ratioP1;P1;durP2;ratioP2;P2;SDS_P1;SDS_P2;PMS_P1;PMS_P2;Temp;Humidity;BMP_temperature;BMP_pressure;BME280_temperature;BME280_humidity;BME280_pressure;Samples;Min_cycle;Max_cycle;Signal;HPM_P1;HPM_P2
2022/12/19 00:00:45;;;;;;;;;29.75;29.75;;;;;6.98;70.83;101292.28;2107791;27;45538;-66
2022/12/19 00:01:45;;;;;;;;;24.40;23.40;;;;;6.97;71.23;101283.50;2105179;27;46705;-65
2022/12/19 00:02:46;;;;;;;;;29.25;27.75;;;;;6.98;71.06;101287.00;2105657;27;46802;-65
2022/12/19 00:03:49;;;;;;;;;29.00;26.00;;;;;6.98;70.93;101282.63;2102696;27;46622;-65
2022/12/19 00:04:49;;;;;;;;;29.00;26.80;;;;;7.00;70.81;101285.28;2096931;28;46950;-64
2022/12/19 00:05:50;;;;;;;;;28.00;25.75;;;;;6.99;71.28;101289.69;2114342;27;46387;-64
2022/12/19 00:06:50;;;;;;;;;24.25;24.25;;;;;7.00;71.37;101291.44;2112437;27;46201;-64
2022/12/19 00:07:52;;;;;;;;;27.75;26.50;;;;;7.02;70.96;101297.59;2105751;27;45718;-65
2022/12/19 00:08:54;;;;;;;;;30.60;27.40;;;;;7.02;71.40;101294.97;2105499;28;45716;-64
2022/12/19 00:09:54;;;;;;;;;28.40;27.20;;;;;7.03;71.35;101291.44;2106096;27;46692;-63
2022/12/19 00:11:00;;;;;;;;;24.75;24.75;;;;;7.04;71.59;101294.97;2105535;27;46896;-63
2022/12/19 00:12:00;;;;;;;;;27.20;25.60;;;;;7.03;71.38;101299.34;2106743;27;46648;-63
2022/12/19 00:13:01;;;;;;;;;24.75;24.00;;;;;7.03;70.98;101301.13;2106003;27;45956;-64
2022/12/19 00:14:01;;;;;;;;;31.50;27.25;;;;;7.04;71.04;101294.97;2105196;27;46235;-64
2022/12/19 00:15:02;;;;;;;;;24.75;24.75;;;;;7.05;71.15;101289.69;2105275;27;46972;-64
2022/12/19 00:16:05;;;;;;;;;30.25;25.50;;;;;7.06;71.35;101298.47;2105460;28;45492;-63
2022/12/19 00:17:05;;;;;;;;;27.80;25.60;;;;;7.06;71.22;101290.56;2100253;27;45752;-62
2022/12/19 00:18:05;;;;;;;;;28.75;24.75;;;;;7.06;71.15;101295.84;2108186;27;46063;-64
2022/12/19 00:19:06;;;;;;;;;23.75;23.00;;;;;7.06;70.91;101285.28;2105036;28;46972;-64
2022/12/19 00:20:07;;;;;;;;;26.75;23.50;;;;;7.08;71.25;101286.16;2099846;27;46531;-62
2022/12/19 00:21:09;;;;;;;;;28.20;25.80;;;;;7.08;70.78;101288.81;2098796;27;46406;-62
2022/12/19 00:22:10;;;;;;;;;23.40;22.00;;;;;7.10;71.06;101287.03;2097411;27;46622;-63
2022/12/19 00:23:10;;;;;;;;;22.25;20.75;;;;;7.10;70.81;101279.13;2104313;27;46368;-64
2022/12/19 00:24:11;;;;;;;;;20.75;17.75;;;;;7.11;71.29;101286.16;2105495;27;46231;-63
2022/12/19 00:25:11;;;;;;;;;22.75;22.75;;;;;7.12;70.99;101284.44;2105229;27;46123;-65
2022/12/19 00:26:17;;;;;;;;;23.75;22.25;;;;;7.13;71.01;101281.78;2107531;27;45697;-64
2022/12/19 00:27:17;;;;;;;;;25.20;23.00;;;;;7.16;71.13;101278.28;2105400;28;46141;-64
2022/12/19 00:28:18;;;;;;;;;23.50;22.00;;;;;7.15;71.10;101277.38;2105472;27;46897;-64
2022/12/19 00:29:18;;;;;;;;;26.75;24.75;;;;;7.17;70.99;101277.38;2105277;28;46411;-64
2022/12/19 00:30:19;;;;;;;;;22.25;22.00;;;;;7.17;71.09;101280.91;2105069;28;46173;-66
2022/12/19 00:31:21;;;;;;;;;25.50;24.75;;;;;7.19;70.85;101275.63;2104872;27;46346;-65
2022/12/19 00:32:21;;;;;;;;;23.20;20.80;;;;;7.18;71.32;101264.19;2105216;27;46801;-65
2022/12/19 00:33:21;;;;;;;;;22.75;21.00;;;;;7.18;71.29;101279.16;2105152;27;46083;-67
2022/12/19 00:34:22;;;;;;;;;25.75;25.00;;;;;7.18;71.04;101271.22;2106503;27;46395;-66
2022/12/19 00:35:22;;;;;;;;;24.25;22.25;;;;;7.18;71.14;101271.22;2096755;28;46237;-64
2022/12/19 00:36:25;;;;;;;;;23.50;22.25;;;;;7.20;71.02;101269.47;2104754;27;46224;-67
2022/12/19 00:37:26;;;;;;;;;21.20;21.20;;;;;7.19;70.96;101273.88;2104843;27;46410;-66
2022/12/19 00:38:27;;;;;;;;;27.00;24.00;;;;;7.20;70.80;101269.47;2105097;28;46177;-65
2022/12/19 00:39:28;;;;;;;;;26.00;24.80;;;;;7.21;70.98;101269.47;2104916;27;47080;-65
2022/12/19 00:40:28;;;;;;;;;21.00;21.00;;;;;7.21;71.19;101264.19;2106954;27;46365;-63
2022/12/19 00:41:30;;;;;;;;;25.00;22.25;;;;;7.21;71.09;101264.19;2100047;27;46266;-64
2022/12/19 00:42:31;;;;;;;;;23.20;23.20;;;;;7.22;71.08;101271.22;2101885;27;46748;-64
2022/12/19 00:43:31;;;;;;;;;26.25;24.50;;;;;7.23;71.04;101264.19;2096854;28;46316;-63
2022/12/19 00:44:32;;;;;;;;;25.50;23.50;;;;;7.24;71.20;101263.28;2102455;27;46324;-64
2022/12/19 00:45:32;;;;;;;;;27.00;23.50;;;;;7.24;71.20;101258.94;2102855;27;46496;-64
2022/12/19 00:46:33;;;;;;;;;21.25;19.75;;;;;7.26;71.17;101251.88;2104796;27;46624;-64
2022/12/19 00:47:34;;;;;;;;;18.60;17.60;;;;;7.26;71.11;101257.16;2105139;27;46600;-64
2022/12/19 00:48:35;;;;;;;;;18.75;18.75;;;;;7.26;71.18;101253.66;2106846;27;46617;-63
2022/12/19 00:49:36;;;;;;;;;26.00;23.60;;;;;7.27;71.04;101258.03;2099065;27;46864;-64
2022/12/19 00:50:36;;;;;;;;;26.00;21.50;;;;;7.27;71.04;101248.38;2104439;27;46704;-63
2022/12/19 00:51:36;;;;;;;;;21.00;21.00;;;;;7.28;70.92;101246.59;2104992;27;46962;-66
2022/12/19 00:52:37;;;;;;;;;24.00;23.00;;;;;7.28;71.00;101241.31;2102007;27;46406;-63
2022/12/19 00:53:37;;;;;;;;;20.25;20.25;;;;;7.29;71.08;101248.34;2096556;27;46178;-65
2022/12/19 00:54:37;;;;;;;;;20.50;20.50;;;;;7.30;71.09;101237.78;2105256;27;46603;-63
2022/12/19 00:55:38;;;;;;;;;20.25;18.50;;;;;7.30;71.37;101237.78;2107921;27;46472;-63
2022/12/19 00:56:38;;;;;;;;;19.75;19.75;;;;;7.31;70.85;101233.41;2113001;27;46314;-64
2022/12/19 00:57:39;;;;;;;;;20.00;17.50;;;;;7.32;71.01;101235.16;2103624;27;46169;-63
2022/12/19 00:58:39;;;;;;;;;22.00;19.00;;;;;7.33;70.80;101231.63;2104187;28;46309;-64
2022/12/19 00:59:39;;;;;;;;;18.50;18.50;;;;;7.34;71.09;101236.03;2104818;28;46688;-63
2022/12/19 01:00:40;;;;;;;;;20.25;18.50;;;;;7.34;70.96;101231.63;2104460;28;46264;-63
2022/12/19 01:01:40;;;;;;;;;23.50;23.50;;;;;7.35;70.86;101230.75;2105387;28;45716;-63
2022/12/19 01:02:41;;;;;;;;;19.25;19.25;;;;;7.36;71.00;101229.84;2105022;27;46265;-64
2022/12/19 01:03:41;;;;;;;;;24.50;21.50;;;;;7.37;70.82;101226.38;2107109;27;45475;-63
2022/12/19 01:04:41;;;;;;;;;18.75;18.50;;;;;7.38;70.68;101233.41;2113981;27;46179;-62
2022/12/19 01:05:42;;;;;;;;;18.25;18.25;;;;;7.40;71.12;101236.03;2098146;28;46483;-63
2022/12/19 01:06:42;;;;;;;;;21.50;21.50;;;;;7.40;71.27;101236.03;2095757;28;46388;-62
2022/12/19 01:07:42;;;;;;;;;20.25;17.00;;;;;7.42;70.82;101228.13;2103561;28;46341;-63
2022/12/19 01:08:43;;;;;;;;;21.25;20.25;;;;;7.42;70.89;101236.91;2102626;27;46474;-63
2022/12/19 01:09:44;;;;;;;;;20.75;19.25;;;;;7.43;70.90;101233.38;2096853;28;46217;-64
2022/12/19 01:10:46;;;;;;;;;19.75;19.25;;;;;7.44;70.84;101232.50;2104926;27;46176;-64
2022/12/19 01:13:04;;;;;;;;;21.40;17.20;;;;;7.45;70.83;101228.97;2104914;28;47133;-63
2022/12/19 01:14:05;;;;;;;;;15.75;15.75;;;;;7.47;70.71;101231.63;2105426;27;46328;-64
2022/12/19 01:15:06;;;;;;;;;16.00;15.25;;;;;7.48;70.92;101231.63;2108592;27;46509;-64
2022/12/19 01:16:11;;;;;;;;;19.75;18.25;;;;;7.49;70.65;101236.00;2113230;27;45655;-63
2022/12/19 01:17:12;;;;;;;;;22.80;19.60;;;;;7.49;70.76;101236.00;2105456;27;46007;-63
2022/12/19 01:18:12;;;;;;;;;22.50;22.50;;;;;7.50;70.70;101242.19;2106161;27;46533;-63
2022/12/19 01:19:12;;;;;;;;;23.25;20.00;;;;;7.50;70.96;101234.28;2106309;27;46851;-63
2022/12/19 01:20:18;;;;;;;;;20.75;19.25;;;;;7.51;70.72;101236.03;2106084;27;46307;-65
2022/12/19 01:21:19;;;;;;;;;20.60;20.20;;;;;7.52;70.53;101235.16;2105770;27;47018;-62
2022/12/19 01:22:19;;;;;;;;;15.75;14.25;;;;;7.52;70.98;101241.31;2105589;27;46612;-63
2022/12/19 01:23:19;;;;;;;;;21.50;20.00;;;;;7.53;70.71;101243.06;2110448;27;46592;-64
2022/12/19 01:24:20;;;;;;;;;19.50;19.50;;;;;7.54;70.60;101246.59;2114073;27;46624;-63
2022/12/19 01:25:20;;;;;;;;;17.50;17.50;;;;;7.55;70.98;101243.94;2112605;27;46265;-63
2022/12/19 01:26:20;;;;;;;;;18.75;18.50;;;;;7.57;70.57;101251.88;2107739;27;46757;-63
2022/12/19 01:27:21;;;;;;;;;16.50;16.25;;;;;7.57;70.80;101247.47;2105337;27;46720;-63
2022/12/19 01:28:22;;;;;;;;;19.25;19.25;;;;;7.58;70.69;101237.78;2104624;27;46798;-63
2022/12/19 01:29:22;;;;;;;;;27.00;24.00;;;;;7.59;70.77;101244.81;2105322;27;46761;-64
2022/12/19 01:30:23;;;;;;;;;19.00;19.00;;;;;7.60;70.52;101244.81;2113186;27;46413;-64
2022/12/19 01:31:23;;;;;;;;;21.25;21.00;;;;;7.61;70.73;101240.41;2113093;27;46517;-64
2022/12/19 01:32:23;;;;;;;;;18.25;18.25;;;;;7.61;70.81;101249.22;2113555;27;46895;-64
2022/12/19 01:33:24;;;;;;;;;22.00;18.25;;;;;7.61;70.75;101254.50;2113223;27;46614;-64
2022/12/19 01:34:24;;;;;;;;;20.00;19.00;;;;;7.61;70.68;101243.94;2111324;27;46518;-64
2022/12/19 01:35:24;;;;;;;;;20.00;20.00;;;;;7.62;71.01;101243.06;2104294;28;46883;-64
2022/12/19 01:36:25;;;;;;;;;24.00;22.25;;;;;7.63;70.86;101250.13;2100707;27;46421;-64
2022/12/19 01:37:25;;;;;;;;;15.75;15.00;;;;;7.63;70.67;101250.13;2095959;27;46839;-64
2022/12/19 01:38:26;;;;;;;;;16.00;16.00;;;;;7.65;70.66;101240.41;2105277;27;46299;-63
2022/12/19 01:39:26;;;;;;;;;20.00;20.00;;;;;7.66;70.72;101250.09;2104944;27;46658;-64
2022/12/19 01:40:26;;;;;;;;;20.25;20.25;;;;;7.66;70.63;101247.47;2105215;27;46798;-63
2022/12/19 01:41:27;;;;;;;;;22.50;19.75;;;;;7.67;70.79;101240.41;2111599;27;47600;-63
2022/12/19 01:42:34;;;;;;;;;25.75;25.75;;;;;7.67;70.70;101243.06;2111539;27;46765;-64
2022/12/19 01:44:00;;;;;;;;;25.60;20.80;;;;;7.68;71.01;101250.97;2105492;27;46220;-65
2022/12/19 01:45:06;;;;;;;;;23.40;22.80;;;;;7.68;71.10;101242.16;2105130;27;46764;-65
2022/12/19 01:46:13;;;;;;;;;23.80;23.20;;;;;7.70;70.55;101245.69;2104528;27;46987;-65
2022/12/19 01:47:13;;;;;;;;;22.80;21.00;;;;;7.70;70.61;101243.03;2104874;27;46464;-64
2022/12/19 01:48:24;;;;;;;;;25.50;23.25;;;;;7.71;70.93;101239.50;2103480;28;46504;-63
2022/12/19 01:49:32;;;;;;;;;19.00;17.20;;;;;7.71;70.68;101233.34;2106594;27;46725;-63
2022/12/19 01:50:49;;;;;;;;;12.00;10.20;;;;;7.72;70.76;101240.41;2112487;27;45994;-62
2022/12/19 01:51:52;;;;;;;;;29.00;24.60;;;;;7.71;70.83;101234.22;2113574;27;46028;-62
2022/12/19 01:52:54;;;;;;;;;25.80;22.80;;;;;7.72;70.70;101225.41;2105153;27;46818;-63
2022/12/19 01:54:00;;;;;;;;;20.80;17.80;;;;;7.72;70.76;101230.72;2106465;27;46719;-63
2022/12/19 01:55:00;;;;;;;;;21.00;21.00;;;;;7.74;70.34;101228.06;2113509;27;46562;-63
2022/12/19 01:56:05;;;;;;;;;18.25;17.75;;;;;7.74;70.85;101233.34;2104490;27;46888;-62
2022/12/19 01:57:12;;;;;;;;;23.00;22.40;;;;;7.74;70.73;101226.28;2102885;27;45285;-62
2022/12/19 01:58:13;;;;;;;;;25.20;23.60;;;;;7.73;70.72;101224.53;2104907;27;46759;-63
2022/12/19 01:59:21;;;;;;;;;20.40;20.40;;;;;7.75;70.78;101229.81;2105791;27;46577;-62
2022/12/19 02:00:22;;;;;;;;;25.40;22.60;;;;;7.76;70.62;101234.25;2103594;27;46321;-63
2022/12/19 02:01:23;;;;;;;;;27.25;25.25;;;;;7.76;70.71;101235.13;2103945;28;46248;-63
2022/12/19 02:02:28;;;;;;;;;19.80;18.60;;;;;7.77;70.50;101242.16;2105391;27;46905;-63
2022/12/19 02:03:32;;;;;;;;;9.40;8.60;;;;;7.78;70.72;101233.34;2099751;27;46394;-62
2022/12/19 02:04:33;;;;;;;;;25.00;23.00;;;;;7.79;70.73;101235.09;2104834;27;46906;-63
2022/12/19 02:05:34;;;;;;;;;26.00;23.60;;;;;7.80;70.43;101239.50;2105002;27;46247;-63
2022/12/19 02:06:35;;;;;;;;;21.50;19.75;;;;;7.81;70.49;101241.25;2104911;27;46236;-63
2022/12/19 02:07:37;;;;;;;;;19.40;19.40;;;;;7.82;70.57;101237.75;2105275;27;46847;-64
2022/12/19 02:08:40;;;;;;;;;22.00;20.20;;;;;7.82;70.40;101245.66;2109937;27;46772;-63
2022/12/19 02:09:41;;;;;;;;;24.80;23.40;;;;;7.84;70.47;101243.00;2114795;27;45921;-63
2022/12/19 02:10:41;;;;;;;;;23.00;23.00;;;;;7.84;70.33;101237.72;2113263;27;46787;-64
2022/12/19 02:11:41;;;;;;;;;20.25;19.75;;;;;7.84;70.54;101245.66;2112761;27;46321;-63
2022/12/19 02:12:44;;;;;;;;;22.25;22.00;;;;;7.83;70.51;101238.63;2114998;27;46168;-62
2022/12/19 02:13:45;;;;;;;;;22.40;22.20;;;;;7.83;70.50;101247.41;2108342;27;45767;-62
2022/12/19 02:14:46;;;;;;;;;21.20;19.40;;;;;7.83;70.54;101247.41;2100291;27;46812;-63
2022/12/19 02:15:58;;;;;;;;;22.20;19.00;;;;;7.84;70.61;101243.91;2104836;28;47093;-62
2022/12/19 02:17:17;;;;;;;;;22.20;19.80;;;;;7.85;70.78;101244.78;2105044;27;46802;-62
2022/12/19 02:18:56;;;;;;;;;17.40;17.40;;;;;7.86;70.70;101244.75;2110985;27;46365;-64
2022/12/19 02:20:09;;;;;;;;;20.40;18.40;;;;;7.86;70.79;101246.53;2114176;27;46757;-64
2022/12/19 02:21:23;;;;;;;;;20.60;18.60;;;;;7.85;70.97;101247.41;2113580;27;46535;-62
2022/12/19 02:22:35;;;;;;;;;20.20;20.20;;;;;7.87;70.65;101248.28;2097651;28;46688;-63
2022/12/19 02:24:09;;;;;;;;;23.20;22.20;;;;;7.87;70.92;101243.88;2113012;27;46854;-63
2022/12/19 02:25:47;;;;;;;;;18.20;18.00;;;;;7.87;70.89;101241.22;2113130;27;46397;-63
2022/12/19 02:27:00;;;;;;;;;18.60;18.60;;;;;7.89;70.67;101241.25;2108160;27;46295;-63
2022/12/19 02:28:23;;;;;;;;;21.80;20.20;;;;;7.88;70.35;101236.88;2108578;27;45724;-63
2022/12/19 02:29:59;;;;;;;;;16.80;16.80;;;;;7.89;70.77;101246.53;2113531;27;46964;-63
2022/12/19 02:31:18;;;;;;;;;21.00;20.80;;;;;7.91;70.74;101250.06;2096720;28;46640;-63
2022/12/19 02:32:33;;;;;;;;;19.60;18.60;;;;;7.90;70.72;101249.19;2096809;28;46524;-63
2022/12/19 02:33:44;;;;;;;;;20.40;19.00;;;;;7.90;70.70;101243.03;2088250;28;46666;-63
2022/12/19 02:34:57;;;;;;;;;21.20;20.60;;;;;7.90;70.70;101246.53;2090054;28;46898;-63
2022/12/19 02:36:15;;;;;;;;;19.20;18.00;;;;;7.91;70.78;101244.78;2096676;28;47039;-62
2022/12/19 02:37:29;;;;;;;;;23.00;22.40;;;;;7.91;70.70;101250.06;2087936;28;46661;-62
2022/12/19 02:38:43;;;;;;;;;18.80;18.20;;;;;7.91;70.85;101247.41;2096977;28;46735;-62
2022/12/19 02:39:54;;;;;;;;;18.00;15.40;;;;;7.92;70.77;101244.78;2096771;28;46040;-62
2022/12/19 02:41:06;;;;;;;;;21.20;18.00;;;;;7.94;70.66;101253.56;2096374;28;46643;-63
2022/12/19 02:42:11;;;;;;;;;17.80;16.80;;;;;7.93;70.54;101243.88;2096788;28;46747;-62
2022/12/19 02:43:14;;;;;;;;;19.20;18.40;;;;;7.93;70.72;101248.28;2096827;28;46790;-62
2022/12/19 02:44:20;;;;;;;;;18.00;18.00;;;;;7.94;70.80;101244.75;2087820;28;47057;-62
2022/12/19 02:45:24;;;;;;;;;17.20;15.20;;;;;7.94;70.80;101236.84;2088686;28;46503;-63
2022/12/19 02:46:25;;;;;;;;;18.40;18.00;;;;;7.94;70.83;101236.84;2096710;28;46267;-62
2022/12/19 02:47:28;;;;;;;;;17.80;17.80;;;;;7.95;70.85;101241.22;2096107;28;46804;-63
2022/12/19 02:48:30;;;;;;;;;22.80;17.60;;;;;7.95;70.78;101246.50;2096918;28;46321;-63
2022/12/19 02:49:35;;;;;;;;;19.40;18.40;;;;;7.95;70.96;101231.53;2096322;28;46827;-64
2022/12/19 02:50:42;;;;;;;;;18.40;17.20;;;;;7.96;70.73;101237.69;2094333;28;46894;-61
2022/12/19 02:51:42;;;;;;;;;14.60;14.40;;;;;7.96;70.68;101229.78;2096434;28;46886;-63
2022/12/19 02:52:45;;;;;;;;;12.25;12.25;;;;;7.97;70.74;101232.41;2087897;28;47740;-64
2022/12/19 02:53:45;;;;;;;;;17.20;14.20;;;;;7.98;70.86;101230.66;2080328;28;46960;-63
2022/12/19 02:54:49;;;;;;;;;16.50;14.75;;;;;7.98;70.64;101223.59;2091470;28;46794;-62
2022/12/19 02:56:04;;;;;;;;;19.60;17.80;;;;;8.00;70.76;101231.50;2096425;28;46361;-64
2022/12/19 02:57:15;;;;;;;;;18.20;16.60;;;;;8.01;70.83;101227.13;2096517;28;46299;-63
2022/12/19 02:58:37;;;;;;;;;16.40;16.40;;;;;8.01;70.91;101228.00;2101682;28;46696;-62
2022/12/19 02:59:57;;;;;;;;;5.60;5.20;;;;;8.02;71.07;101232.41;2089982;28;45685;-63
2022/12/19 03:01:29;;;;;;;;;16.60;16.40;;;;;8.02;70.98;101229.78;2082412;28;46907;-63
2022/12/19 03:02:38;;;;;;;;;15.40;13.80;;;;;8.03;70.84;101225.38;2071036;28;46831;-64
2022/12/19 03:04:19;;;;;;;;;14.60;12.80;;;;;8.03;70.99;101228.00;2071673;28;46696;-63
2022/12/19 03:05:30;;;;;;;;;18.00;14.80;;;;;8.03;71.12;101230.66;2047146;28;46858;-64
2022/12/19 03:06:39;;;;;;;;;17.40;15.20;;;;;8.01;71.41;101228.00;2054107;28;46601;-64
2022/12/19 03:08:11;;;;;;;;;16.20;15.40;;;;;7.99;71.22;101235.03;2054976;28;46445;-63
2022/12/19 03:09:43;;;;;;;;;14.20;14.20;;;;;8.00;71.14;101230.63;2047480;28;46543;-63
2022/12/19 03:11:10;;;;;;;;;16.40;15.60;;;;;7.98;71.34;101217.44;2021220;29;46771;-64
2022/12/19 03:12:23;;;;;;;;;19.00;17.20;;;;;7.99;71.42;101221.81;2022280;28;46635;-64
2022/12/19 03:13:26;;;;;;;;;19.20;18.20;;;;;8.00;71.35;101222.72;2031718;29;46194;-63
2022/12/19 03:14:29;;;;;;;;;17.00;17.00;;;;;8.01;71.44;101228.00;2030993;29;46693;-63
2022/12/19 03:15:31;;;;;;;;;13.80;13.80;;;;;8.02;71.30;101228.91;2032477;28;46639;-64
2022/12/19 03:16:35;;;;;;;;;17.00;17.00;;;;;8.01;71.45;101222.72;2031718;28;46271;-63
2022/12/19 03:17:37;;;;;;;;;18.00;18.00;;;;;8.02;71.52;101228.91;2031294;28;45598;-63
2022/12/19 03:18:37;;;;;;;;;12.00;12.00;;;;;8.04;71.67;101222.72;2038804;28;46773;-63
2022/12/19 03:19:39;;;;;;;;;19.25;18.00;;;;;8.04;71.41;101224.47;2031671;29;45608;-63
2022/12/19 03:21:12;;;;;;;;;15.80;14.00;;;;;8.04;71.44;101232.41;2033426;28;46386;-62
2022/12/19 03:22:13;;;;;;;;;17.80;15.40;;;;;8.05;71.64;101224.47;2035594;28;46797;-63
2022/12/19 03:23:15;;;;;;;;;16.00;13.25;;;;;8.06;71.45;101222.69;2039872;28;46763;-63
2022/12/19 03:24:17;;;;;;;;;15.40;14.80;;;;;8.05;71.46;101221.81;2032255;28;46855;-63
2022/12/19 03:25:19;;;;;;;;;17.40;16.40;;;;;8.07;71.49;101219.16;2031375;29;46964;-63
2022/12/19 03:26:23;;;;;;;;;13.80;12.80;;;;;8.06;71.59;101226.22;2031782;29;46667;-63
2022/12/19 03:27:31;;;;;;;;;15.00;15.00;;;;;8.07;71.64;101227.97;2031440;29;45304;-63
2022/12/19 03:28:45;;;;;;;;;15.20;15.20;;;;;8.08;71.62;101221.81;2033553;28;46475;-63
2022/12/19 03:29:53;;;;;;;;;11.00;9.40;;;;;8.10;71.38;101216.50;2039459;28;45408;-62
2022/12/19 03:30:56;;;;;;;;;14.60;14.60;;;;;8.11;71.64;101228.84;2031710;29;46333;-63
2022/12/19 03:32:02;;;;;;;;;19.60;18.00;;;;;8.12;71.64;101225.31;2031556;29;46527;-63
2022/12/19 03:33:03;;;;;;;;;17.40;15.60;;;;;8.11;71.56;101220.91;2031819;29;46484;-63
2022/12/19 03:34:17;;;;;;;;;17.00;15.75;;;;;8.12;71.54;101220.91;2031167;29;46537;-63
2022/12/19 03:35:24;;;;;;;;;15.20;13.80;;;;;8.13;71.49;101224.41;2031419;28;45789;-63
2022/12/19 03:36:31;;;;;;;;;16.60;15.80;;;;;8.12;71.52;101215.63;2031241;29;46887;-62
2022/12/19 03:37:36;;;;;;;;;13.80;13.40;;;;;8.14;71.67;101229.72;2031423;29;46364;-63
2022/12/19 03:38:39;;;;;;;;;16.80;15.40;;;;;8.14;71.60;101221.81;2031708;29;45513;-64
2022/12/19 03:39:44;;;;;;;;;14.60;12.60;;;;;8.15;71.47;101215.63;2032135;28;46685;-64
2022/12/19 03:40:47;;;;;;;;;19.20;19.20;;;;;8.16;71.69;101217.38;2031473;29;46472;-64
2022/12/19 03:43:12;;;;;;;;;19.80;14.60;;;;;8.17;71.60;101208.56;2050822;28;47080;-63
2022/12/19 03:44:14;;;;;;;;;16.40;16.40;;;;;8.17;71.54;101208.56;2055227;28;46109;-64
2022/12/19 03:45:22;;;;;;;;;19.80;17.60;;;;;8.19;71.53;101208.56;2055571;28;46743;-63
2022/12/19 03:46:26;;;;;;;;;14.80;14.00;;;;;8.19;71.69;101209.44;2061157;28;46927;-63
2022/12/19 03:47:50;;;;;;;;;11.80;11.20;;;;;8.20;71.48;101203.25;2095975;28;47140;-63
2022/12/19 03:48:53;;;;;;;;;11.60;10.80;;;;;8.20;71.67;101205.03;2096586;28;47000;-62
2022/12/19 03:49:54;;;;;;;;;16.60;14.20;;;;;8.19;71.83;101208.56;2103262;27;46584;-63
2022/12/19 03:51:00;;;;;;;;;19.25;18.00;;;;;8.19;71.87;101200.63;2101339;27;46382;-64
2022/12/19 03:52:33;;;;;;;;;13.60;13.60;;;;;8.20;71.88;101202.38;2111510;27;46490;-63
2022/12/19 03:54:14;;;;;;;;;16.40;15.00;;;;;8.20;71.70;101213.84;2081251;28;46283;-63
2022/12/19 03:55:26;;;;;;;;;12.00;12.00;;;;;8.21;71.78;101215.59;2054994;28;46570;-63
2022/12/19 03:56:53;;;;;;;;;12.80;11.40;;;;;8.22;71.68;101213.81;2050370;28;46420;-63
2022/12/19 03:58:17;;;;;;;;;12.00;12.00;;;;;8.23;71.66;101200.59;2054812;28;46905;-63
2022/12/19 03:59:28;;;;;;;;;16.00;15.80;;;;;8.25;71.58;101213.81;2055156;28;46273;-64
2022/12/19 04:00:33;;;;;;;;;11.60;11.40;;;;;8.25;71.67;101213.81;2054783;28;46278;-63
2022/12/19 04:01:36;;;;;;;;;11.00;11.00;;;;;8.26;71.47;101220.88;2055164;28;47056;-63
2022/12/19 04:02:38;;;;;;;;;15.00;13.80;;;;;8.27;71.59;101220.00;2054560;28;46742;-63
2022/12/19 04:03:39;;;;;;;;;14.80;13.00;;;;;8.25;71.77;101206.75;2047447;28;46511;-63
2022/12/19 04:04:43;;;;;;;;;14.00;13.00;;;;;8.27;71.79;101212.94;2047073;28;46826;-63
2022/12/19 04:05:45;;;;;;;;;13.60;13.60;;;;;8.28;71.58;101213.81;2061762;28;46707;-63
2022/12/19 04:06:47;;;;;;;;;13.00;12.00;;;;;8.30;71.53;101214.69;2055041;28;46472;-61
2022/12/19 04:07:50;;;;;;;;;18.20;17.40;;;;;8.31;71.60;101212.91;2054978;28;46519;-64
2022/12/19 04:08:50;;;;;;;;;15.20;13.80;;;;;8.32;71.67;101209.38;2060819;28;46465;-63
2022/12/19 04:09:53;;;;;;;;;17.25;13.00;;;;;8.33;71.64;101214.66;2056299;28;46463;-62
2022/12/19 04:11:00;;;;;;;;;13.00;12.60;;;;;8.34;71.52;101216.44;2060190;28;46297;-62
2022/12/19 04:12:05;;;;;;;;;14.40;14.40;;;;;8.34;71.55;101220.81;2060595;28;46802;-62
2022/12/19 04:13:12;;;;;;;;;16.60;13.60;;;;;8.35;71.53;101220.84;2056041;28;46922;-62
2022/12/19 04:14:34;;;;;;;;;18.20;16.60;;;;;8.35;71.63;101225.25;2059652;28;47229;-63
2022/12/19 04:15:59;;;;;;;;;15.60;15.40;;;;;8.35;71.83;101222.63;2047515;28;46263;-63
2022/12/19 04:17:14;;;;;;;;;13.00;12.00;;;;;8.35;71.49;101222.63;2055242;28;45903;-63
2022/12/19 04:18:17;;;;;;;;;18.20;16.80;;;;;8.34;71.73;101221.72;2055802;28;46794;-63
2022/12/19 04:19:30;;;;;;;;;11.80;11.60;;;;;8.34;71.59;101224.38;2054977;28;46594;-63
2022/12/19 04:20:32;;;;;;;;;12.60;11.40;;;;;8.34;71.73;101227.03;2055237;28;46783;-63
2022/12/19 04:21:42;;;;;;;;;13.00;11.00;;;;;8.34;71.57;101224.38;2055348;28;46390;-63
2022/12/19 04:23:06;;;;;;;;;15.60;13.20;;;;;8.36;71.40;101229.66;2055239;28;46350;-63
2022/12/19 04:24:11;;;;;;;;;12.60;12.60;;;;;8.37;71.78;101226.13;2054745;28;46459;-64
2022/12/19 04:25:16;;;;;;;;;12.40;10.80;;;;;8.37;71.61;101227.00;2054907;28;47438;-64
2022/12/19 04:26:20;;;;;;;;;14.60;13.60;;;;;8.38;71.45;101227.88;2054954;28;46335;-63
2022/12/19 04:27:21;;;;;;;;;12.80;12.60;;;;;8.38;71.67;101231.41;2054758;28;45622;-62
2022/12/19 04:28:37;;;;;;;;;11.00;11.00;;;;;8.40;71.35;101236.72;2055134;28;46603;-61
2022/12/19 04:29:38;;;;;;;;;13.80;12.40;;;;;8.40;71.51;101236.72;2054884;28;46226;-62
2022/12/19 04:30:41;;;;;;;;;14.60;14.60;;;;;8.40;71.33;101224.38;2063679;28;46420;-62
2022/12/19 04:31:43;;;;;;;;;13.40;13.40;;;;;8.41;71.58;101223.47;2073131;28;46540;-62
2022/12/19 04:32:45;;;;;;;;;16.80;15.20;;;;;8.41;71.33;101231.41;2091805;27;46346;-62
2022/12/19 04:33:45;;;;;;;;;14.60;11.80;;;;;8.43;71.31;101231.41;2105097;27;46361;-62
2022/12/19 04:34:45;;;;;;;;;12.25;12.25;;;;;8.43;71.47;101223.47;2107705;27;45141;-61
2022/12/19 04:35:46;;;;;;;;;14.00;13.25;;;;;8.42;71.52;101224.34;2105300;27;46243;-62
2022/12/19 04:36:47;;;;;;;;;12.00;12.00;;;;;8.43;71.29;101220.81;2099717;27;46686;-63
2022/12/19 04:37:48;;;;;;;;;17.40;16.00;;;;;8.45;71.00;101224.34;2106308;27;46436;-62
2022/12/19 04:38:48;;;;;;;;;13.00;13.00;;;;;8.44;71.40;101226.09;2105873;27;46768;-62
2022/12/19 04:39:49;;;;;;;;;15.00;13.00;;;;;8.44;71.49;101214.66;2113813;27;46510;-62
2022/12/19 04:40:49;;;;;;;;;13.75;12.50;;;;;8.45;71.24;101233.16;2109357;27;46433;-61
2022/12/19 04:41:49;;;;;;;;;11.33;11.00;;;;;8.45;71.33;101227.84;2105418;27;46204;-62
2022/12/19 04:42:50;;;;;;;;;13.00;13.00;;;;;8.46;71.30;101226.97;2105069;27;46226;-62
2022/12/19 04:43:50;;;;;;;;;16.25;13.75;;;;;8.46;71.36;101226.97;2107475;27;46842;-62
2022/12/19 04:44:50;;;;;;;;;14.00;13.00;;;;;8.47;71.33;101231.38;2105076;27;46683;-62
2022/12/19 04:45:51;;;;;;;;;14.75;14.50;;;;;8.46;71.07;101219.03;2110234;27;46788;-61
2022/12/19 04:46:51;;;;;;;;;11.25;11.25;;;;;8.48;71.30;101224.31;2110027;27;46337;-62
2022/12/19 04:47:51;;;;;;;;;12.50;12.25;;;;;8.47;71.17;101218.16;2108577;27;47262;-62
2022/12/19 04:48:52;;;;;;;;;13.00;12.75;;;;;8.48;71.08;101217.25;2108660;27;46674;-62
2022/12/19 04:49:52;;;;;;;;;15.25;15.00;;;;;8.48;71.29;101221.66;2098019;28;47023;-63
2022/12/19 04:50:54;;;;;;;;;12.75;12.75;;;;;8.48;71.25;101219.03;2099913;27;46322;-63
2022/12/19 04:51:54;;;;;;;;;11.20;11.20;;;;;8.48;71.41;101224.31;2104612;28;46519;-62
2022/12/19 04:52:56;;;;;;;;;13.75;13.00;;;;;8.48;71.51;101219.91;2104112;27;46682;-63
2022/12/19 04:53:57;;;;;;;;;14.40;13.00;;;;;8.49;71.37;101219.00;2103965;28;46800;-63
2022/12/19 04:54:57;;;;;;;;;13.25;12.75;;;;;8.49;71.69;101226.94;2105258;27;46504;-64
2022/12/19 04:56:05;;;;;;;;;12.50;11.50;;;;;8.49;71.48;101226.94;2112319;27;46499;-63
2022/12/19 04:57:05;;;;;;;;;10.80;10.40;;;;;8.50;71.18;101222.53;2096828;28;46858;-65
2022/12/19 04:58:06;;;;;;;;;12.50;12.50;;;;;8.49;71.28;101226.94;2109057;27;46381;-63
2022/12/19 04:59:07;;;;;;;;;17.25;15.00;;;;;8.51;71.43;101232.22;2108536;27;45704;-64
2022/12/19 05:00:08;;;;;;;;;12.75;11.25;;;;;8.50;71.48;101218.13;2113471;27;46689;-64
2022/12/19 05:01:09;;;;;;;;;10.80;10.80;;;;;8.51;71.30;101226.94;2111500;27;46428;-64
2022/12/19 05:02:09;;;;;;;;;11.50;11.50;;;;;8.52;71.70;101220.78;2105123;28;46921;-64
2022/12/19 05:03:10;;;;;;;;;13.00;12.00;;;;;8.52;71.47;101229.59;2114663;27;46656;-64